createdAt,value
2019-03-26T00:00:23.790Z,84.90
2019-03-26T00:02:53.103Z,85.20
2019-03-26T00:05:22.433Z,84.40
2019-03-26T00:07:52.114Z,84.50
2019-03-26T00:10:27.351Z,84.40
2019-03-26T00:12:56.648Z,84.00
2019-03-26T00:15:26.015Z,85.20
2019-03-26T00:17:55.310Z,84.20
2019-03-26T00:20:24.636Z,84.40
2019-03-26T00:22:53.937Z,84.30
2019-03-26T00:25:23.255Z,83.90
2019-03-26T00:27:52.562Z,84.30
2019-03-26T00:30:21.885Z,84.60
2019-03-26T00:32:51.178Z,85.10
2019-03-26T00:35:20.503Z,84.70
2019-03-26T00:37:49.796Z,84.80
2019-03-26T00:40:19.192Z,85.20
2019-03-26T00:42:48.506Z,84.80
2019-03-26T00:45:17.832Z,84.20
2019-03-26T00:47:47.118Z,85.00
2019-03-26T00:50:16.530Z,84.50
2019-03-26T00:52:45.839Z,84.50
2019-03-26T00:55:22.515Z,84.50
2019-03-26T00:57:46.221Z,84.30
2019-03-26T01:00:39.121Z,84.00
2019-03-26T01:03:08.668Z,83.50
2019-03-26T01:05:39.295Z,84.20
2019-03-26T01:08:08.774Z,84.20
2019-03-26T01:10:38.088Z,84.40
2019-03-26T01:13:07.632Z,84.20
2019-03-26T01:15:36.936Z,84.30
2019-03-26T01:18:06.485Z,84.20
2019-03-26T01:20:35.777Z,84.40
2019-03-26T01:23:06.159Z,84.10
2019-03-26T01:25:35.624Z,84.30
2019-03-26T01:28:05.177Z,84.20
2019-03-26T01:30:34.490Z,84.70
2019-03-26T01:33:03.892Z,85.10
2019-03-26T01:35:33.259Z,85.00
2019-03-26T01:38:02.621Z,85.10
2019-03-26T01:40:31.941Z,85.10
2019-03-26T01:43:01.743Z,85.00
2019-03-26T01:45:31.102Z,85.50
2019-03-26T01:48:00.433Z,85.80
2019-03-26T01:50:29.734Z,84.80
2019-03-26T01:52:59.060Z,85.20
2019-03-26T01:55:28.453Z,85.10
2019-03-26T01:57:57.793Z,84.80
2019-03-26T02:00:27.187Z,84.60
2019-03-26T02:02:56.511Z,84.50
2019-03-26T02:05:25.892Z,85.00
2019-03-26T02:07:55.258Z,85.00
2019-03-26T02:10:24.584Z,85.00
2019-03-26T02:12:53.876Z,85.40
2019-03-26T02:15:30.897Z,85.20
2019-03-26T02:18:00.424Z,85.70
2019-03-26T02:20:29.954Z,86.50
2019-03-26T02:22:59.428Z,86.40
2019-03-26T02:25:28.830Z,86.60
2019-03-26T02:27:58.417Z,86.60
2019-03-26T02:30:27.767Z,87.10
2019-03-26T02:32:57.100Z,87.30
2019-03-26T02:35:26.400Z,87.60
2019-03-26T02:37:55.715Z,87.80
2019-03-26T02:40:25.011Z,87.90
2019-03-26T02:42:54.333Z,88.00
2019-03-26T02:45:23.779Z,88.00
2019-03-26T02:47:53.340Z,88.00
2019-03-26T02:50:23.704Z,88.10
2019-03-26T02:52:53.104Z,88.30
2019-03-26T02:55:22.464Z,88.80
2019-03-26T02:57:51.780Z,88.50
2019-03-26T03:00:21.751Z,88.70
2019-03-26T03:02:51.072Z,88.90
2019-03-26T03:05:34.213Z,89.20
2019-03-26T03:07:51.549Z,90.00
2019-03-26T03:10:20.872Z,90.00
2019-03-26T03:12:50.173Z,89.80
2019-03-26T03:15:31.732Z,89.70
2019-03-26T03:18:01.034Z,89.00
2019-03-26T03:20:30.357Z,90.10
2019-03-26T03:22:59.867Z,90.20
2019-03-26T03:25:29.229Z,90.30
2019-03-26T03:27:58.611Z,90.10
2019-03-26T03:30:27.937Z,90.20
2019-03-26T03:32:57.237Z,90.20
2019-03-26T03:35:26.650Z,90.40
2019-03-26T03:37:57.102Z,90.20
2019-03-26T03:40:26.434Z,90.30
2019-03-26T03:42:55.728Z,90.50
2019-03-26T03:45:29.031Z,90.70
2019-03-26T03:48:00.634Z,90.60
2019-03-26T03:50:30.228Z,90.60
2019-03-26T03:53:00.586Z,90.40
2019-03-26T03:55:32.186Z,90.50
2019-03-26T03:58:01.857Z,90.60
2019-03-26T04:00:36.096Z,90.60
2019-03-26T04:03:06.435Z,90.30
2019-03-26T04:05:36.078Z,90.30
2019-03-26T04:08:05.465Z,90.30
2019-03-26T04:10:34.851Z,90.40
2019-03-26T04:13:04.537Z,90.20
2019-03-26T04:15:35.106Z,90.10
2019-03-26T04:18:06.159Z,90.30
2019-03-26T04:20:36.523Z,90.10
2019-03-26T04:23:06.078Z,90.30
2019-03-26T04:25:35.376Z,90.40
2019-03-26T04:28:04.771Z,90.20
2019-03-26T04:30:43.049Z,89.80
2019-03-26T04:33:12.549Z,89.30
2019-03-26T04:35:41.864Z,90.00
2019-03-26T04:38:11.157Z,89.70
2019-03-26T04:40:40.480Z,89.70
2019-03-26T04:43:09.826Z,89.60
2019-03-26T04:45:39.144Z,89.00
2019-03-26T04:48:08.467Z,89.20
2019-03-26T04:50:37.843Z,89.00
2019-03-26T05:52:39.401Z,89.30
2019-03-26T05:55:10.205Z,87.50
2019-03-26T05:57:39.535Z,88.10
2019-03-26T06:00:13.599Z,88.80
2019-03-26T06:02:42.893Z,88.30
2019-03-26T06:05:12.374Z,88.50
2019-03-26T06:07:41.749Z,88.00
2019-03-26T06:10:11.505Z,87.40
2019-03-26T06:12:41.001Z,87.00
2019-03-26T06:15:11.251Z,87.30
2019-03-26T06:17:40.719Z,86.80
2019-03-26T06:20:10.849Z,86.70
2019-03-26T06:22:41.136Z,86.50
2019-03-26T06:25:11.176Z,86.00
2019-03-26T06:27:40.491Z,85.10
2019-03-26T06:30:10.459Z,85.70
2019-03-26T06:32:39.749Z,85.30
2019-03-26T06:35:21.399Z,84.80
2019-03-26T06:37:50.720Z,84.20
2019-03-26T06:40:20.114Z,84.70
2019-03-26T06:42:49.438Z,84.80
2019-03-26T06:45:18.801Z,84.80
2019-03-26T06:48:00.666Z,85.40
2019-03-26T06:50:29.965Z,84.40
2019-03-26T06:52:59.297Z,84.00
2019-03-26T06:55:28.594Z,82.90
2019-03-26T06:57:57.924Z,83.50
2019-03-26T07:00:32.180Z,83.10
2019-03-26T07:03:02.840Z,83.10
2019-03-26T07:05:32.239Z,81.30
2019-03-26T07:08:02.609Z,80.10
2019-03-26T07:10:44.457Z,80.80
2019-03-26T07:13:13.760Z,79.90
2019-03-26T07:15:43.090Z,80.00
2019-03-26T07:18:12.383Z,80.40
2019-03-26T07:20:41.786Z,80.30
2019-03-26T07:23:11.255Z,79.90
2019-03-26T07:25:40.576Z,80.00
2019-03-26T07:28:09.899Z,80.50
2019-03-26T07:30:41.937Z,80.10
2019-03-26T07:33:11.686Z,79.30
2019-03-26T07:35:41.342Z,79.10
2019-03-26T07:38:10.779Z,78.60
2019-03-26T07:40:40.172Z,78.10
2019-03-26T07:43:09.555Z,77.30
2019-03-26T07:45:38.886Z,76.80
2019-03-26T07:48:08.255Z,77.60
2019-03-26T07:50:37.580Z,75.70
2019-03-26T07:53:06.959Z,75.00
2019-03-26T07:55:36.501Z,74.90
2019-03-26T07:58:05.862Z,74.70
2019-03-26T08:00:36.709Z,75.40
2019-03-26T08:03:05.614Z,75.40
2019-03-26T08:05:34.894Z,75.60
2019-03-26T08:08:04.756Z,76.30
2019-03-26T08:10:34.093Z,76.90
2019-03-26T08:13:03.453Z,76.90
2019-03-26T08:15:32.828Z,76.00
2019-03-26T08:18:14.758Z,77.30
2019-03-26T08:20:44.062Z,76.90
2019-03-26T08:23:13.401Z,76.90
2019-03-26T08:25:42.775Z,77.10
2019-03-26T08:28:12.108Z,77.40
2019-03-26T08:30:41.441Z,77.50
2019-03-26T08:33:10.834Z,77.00
2019-03-26T08:35:40.135Z,77.80
2019-03-26T08:38:13.084Z,77.80
2019-03-26T08:40:40.460Z,78.40
2019-03-26T08:43:09.760Z,79.40
2019-03-26T08:45:39.156Z,80.40
2019-03-26T08:48:08.497Z,80.70
2019-03-26T08:50:37.828Z,79.40
2019-03-26T08:53:07.135Z,77.50
2019-03-26T08:55:36.473Z,76.40
2019-03-26T08:58:05.875Z,77.50
2019-03-26T09:00:35.239Z,75.50
2019-03-26T09:03:04.820Z,74.90
2019-03-26T09:05:34.113Z,75.80
2019-03-26T09:08:03.618Z,76.20
2019-03-26T09:10:32.978Z,75.40
2019-03-26T09:13:14.453Z,74.40
2019-03-26T09:15:43.730Z,74.20
2019-03-26T09:18:13.109Z,76.00
2019-03-26T09:20:42.404Z,76.30
2019-03-26T09:23:12.487Z,76.00
2019-03-26T09:25:42.097Z,76.30
2019-03-26T09:28:11.395Z,75.70
2019-03-26T09:30:40.736Z,72.80
2019-03-26T09:33:10.041Z,72.80
2019-03-26T09:35:39.361Z,73.10
2019-03-26T09:38:08.719Z,72.30
2019-03-26T09:40:38.125Z,72.70
2019-03-26T09:43:07.431Z,73.40
2019-03-26T09:45:36.855Z,73.40
2019-03-26T09:48:06.164Z,73.60
2019-03-26T09:50:36.223Z,69.90
2019-03-26T09:53:05.758Z,70.50
2019-03-26T09:55:35.166Z,71.00
2019-03-26T09:58:04.645Z,69.80
2019-03-26T10:00:33.974Z,68.60
2019-03-26T10:03:03.572Z,66.60
2019-03-26T10:05:32.879Z,64.70
2019-03-26T10:08:02.197Z,63.80
2019-03-26T10:10:31.496Z,64.10
2019-03-26T10:13:00.986Z,62.80
2019-03-26T10:15:30.273Z,61.90
2019-03-26T10:17:59.598Z,60.50
2019-03-26T10:20:28.918Z,58.60
2019-03-26T10:22:58.575Z,60.80
2019-03-26T10:25:27.873Z,61.80
2019-03-26T10:27:57.186Z,62.70
2019-03-26T10:30:34.004Z,62.60
2019-03-26T10:33:03.703Z,60.80
2019-03-26T10:35:33.304Z,59.50
2019-03-26T10:38:02.788Z,60.40
2019-03-26T10:40:39.344Z,59.90
2019-03-26T10:43:08.803Z,58.90
2019-03-26T10:45:38.298Z,59.00
2019-03-26T10:48:07.730Z,58.60
2019-03-26T10:50:37.052Z,58.10
2019-03-26T10:53:06.483Z,58.00
2019-03-26T10:55:35.902Z,59.00
2019-03-26T10:58:05.347Z,58.10
2019-03-26T11:00:35.800Z,56.70
2019-03-26T11:03:05.240Z,57.30
2019-03-26T11:05:34.653Z,55.70
2019-03-26T11:08:04.175Z,54.70
2019-03-26T11:10:33.935Z,55.10
2019-03-26T11:13:03.543Z,53.70
2019-03-26T11:15:32.912Z,52.90
2019-03-26T11:18:02.217Z,51.80
2019-03-26T11:20:31.610Z,50.40
2019-03-26T11:23:00.976Z,51.00
2019-03-26T11:25:30.376Z,51.80
2019-03-26T11:28:02.099Z,52.90
2019-03-26T11:30:30.769Z,52.80
2019-03-26T11:33:00.091Z,54.30
2019-03-26T11:35:29.418Z,56.20
2019-03-26T11:37:58.744Z,58.50
2019-03-26T11:40:28.059Z,59.10
2019-03-26T11:42:57.520Z,59.40
2019-03-26T11:45:26.844Z,59.00
2019-03-26T11:47:56.132Z,58.40
2019-03-26T11:50:25.595Z,59.10
2019-03-26T11:52:54.893Z,57.80
2019-03-26T11:55:24.208Z,58.40
2019-03-26T11:57:53.507Z,57.60
2019-03-26T12:00:27.439Z,58.70
2019-03-26T12:02:56.732Z,55.30
2019-03-26T12:05:26.052Z,54.90
2019-03-26T12:07:55.436Z,51.00
2019-03-26T12:10:24.755Z,49.30
2019-03-26T12:12:54.126Z,50.70
2019-03-26T12:15:23.518Z,49.50
2019-03-26T12:17:52.828Z,51.30
2019-03-26T12:20:22.157Z,51.40
2019-03-26T12:22:51.484Z,52.40
2019-03-26T12:25:21.870Z,52.20
2019-03-26T12:27:51.205Z,52.20
2019-03-26T12:30:34.741Z,51.70
2019-03-26T12:33:04.847Z,53.00
2019-03-26T12:35:46.077Z,54.40
2019-03-26T12:38:17.233Z,54.20
2019-03-26T12:40:47.085Z,54.40
2019-03-26T12:43:16.838Z,54.20
2019-03-26T12:45:46.295Z,53.80
2019-03-26T12:48:15.596Z,52.60
2019-03-26T12:50:44.924Z,53.30
2019-03-26T12:53:15.292Z,51.60
2019-03-26T12:55:44.621Z,51.90
2019-03-26T12:58:36.423Z,51.20
2019-03-26T13:01:04.299Z,50.40
2019-03-26T13:03:34.200Z,50.50
2019-03-26T13:06:03.757Z,49.40
2019-03-26T13:08:33.055Z,47.10
2019-03-26T13:11:03.371Z,48.80
2019-03-26T13:13:32.792Z,46.60
2019-03-26T13:16:02.131Z,44.80
2019-03-26T13:18:31.432Z,45.10
2019-03-26T13:21:00.766Z,42.50
2019-03-26T13:23:30.235Z,41.00
2019-03-26T13:26:00.466Z,41.40
2019-03-26T13:28:29.795Z,39.40
2019-03-26T13:30:59.089Z,39.50
2019-03-26T13:33:28.396Z,40.40
2019-03-26T13:35:58.766Z,40.80
2019-03-26T13:38:28.128Z,40.70
2019-03-26T13:40:57.524Z,40.60
2019-03-26T13:43:26.829Z,41.40
2019-03-26T13:45:56.145Z,43.50
2019-03-26T13:48:25.471Z,44.20
2019-03-26T13:50:54.803Z,45.00
2019-03-26T13:53:24.228Z,45.30
2019-03-26T13:55:53.548Z,46.70
2019-03-26T13:58:22.872Z,48.40
2019-03-26T14:00:52.206Z,49.80
2019-03-26T14:03:21.525Z,49.90
2019-03-26T14:05:50.931Z,49.50
2019-03-26T14:08:20.360Z,50.60
2019-03-26T14:10:49.693Z,50.20
2019-03-26T14:13:19.022Z,49.30
2019-03-26T14:15:48.317Z,47.80
2019-03-26T14:18:17.642Z,48.40
2019-03-26T14:20:46.947Z,48.70
2019-03-26T14:23:16.270Z,49.10
2019-03-26T14:25:45.576Z,48.70
2019-03-26T14:28:15.985Z,48.60
2019-03-26T14:30:45.743Z,48.50
2019-03-26T14:33:15.198Z,49.00
2019-03-26T14:35:44.572Z,49.50
2019-03-26T14:38:14.335Z,50.20
2019-03-26T14:40:54.190Z,50.70
2019-03-26T14:43:15.171Z,51.30
2019-03-26T14:45:49.173Z,51.50
2019-03-26T14:48:18.472Z,50.50
2019-03-26T14:50:47.871Z,48.40
2019-03-26T14:53:17.272Z,45.60
2019-03-26T14:55:46.571Z,42.50
2019-03-26T14:58:15.888Z,41.50
2019-03-26T15:00:45.275Z,39.20
2019-03-26T15:03:14.668Z,39.80
2019-03-26T15:05:44.060Z,39.50
2019-03-26T15:08:13.370Z,39.00
2019-03-26T15:10:42.694Z,38.20
2019-03-26T15:13:11.997Z,38.60
2019-03-26T15:15:41.334Z,39.10
2019-03-26T15:18:10.701Z,40.10
2019-03-26T15:20:42.037Z,40.00
2019-03-26T15:23:11.832Z,41.00
2019-03-26T15:25:41.135Z,41.70
2019-03-26T15:28:11.813Z,42.10
2019-03-26T15:30:41.589Z,43.90
2019-03-26T15:33:11.013Z,42.60
2019-03-26T15:35:40.402Z,41.40
2019-03-26T15:38:09.727Z,40.10
2019-03-26T15:40:39.121Z,42.10
2019-03-26T15:43:08.515Z,41.10
2019-03-26T15:45:37.887Z,42.00
2019-03-26T15:48:07.293Z,44.10
2019-03-26T15:50:41.116Z,45.20
2019-03-26T15:53:10.512Z,45.40
2019-03-26T15:55:40.750Z,46.30
2019-03-26T15:58:10.431Z,46.20
2019-03-26T16:00:42.712Z,46.40
2019-03-26T16:03:22.244Z,45.70
2019-03-26T16:05:50.176Z,46.60
2019-03-26T16:08:19.522Z,46.00
2019-03-26T16:10:48.811Z,46.30
2019-03-26T16:13:18.140Z,44.90
2019-03-26T16:15:47.460Z,45.00
2019-03-26T16:18:16.758Z,45.30
2019-03-26T16:20:46.084Z,45.30
2019-03-26T16:23:15.390Z,43.90
2019-03-26T16:25:49.915Z,44.40
2019-03-26T16:28:22.695Z,43.30
2019-03-26T16:30:52.662Z,43.40
2019-03-26T16:33:21.983Z,44.40
2019-03-26T16:35:51.289Z,45.10
2019-03-26T16:38:20.683Z,45.70
2019-03-26T16:40:50.010Z,46.00
2019-03-26T16:43:19.412Z,45.30
2019-03-26T16:45:48.886Z,45.30
2019-03-26T16:48:18.294Z,46.10
2019-03-26T16:50:47.586Z,46.20
2019-03-26T16:53:16.976Z,46.60
2019-03-26T16:55:46.387Z,47.60
2019-03-26T16:58:15.703Z,47.60
2019-03-26T17:00:45.014Z,47.20
2019-03-26T17:03:14.401Z,47.70
2019-03-26T17:05:43.695Z,47.50
2019-03-26T17:08:13.049Z,48.30
2019-03-26T17:10:42.367Z,48.90
2019-03-26T17:13:11.710Z,49.10
2019-03-26T17:15:41.625Z,49.60
2019-03-26T17:18:10.969Z,50.40
2019-03-26T17:20:40.332Z,51.10
2019-03-26T17:23:10.755Z,51.60
2019-03-26T17:25:41.721Z,52.70
2019-03-26T17:28:11.055Z,53.10
2019-03-26T17:30:40.393Z,53.10
2019-03-26T17:33:09.698Z,53.20
2019-03-26T17:35:39.980Z,53.90
2019-03-26T17:38:09.439Z,54.80
2019-03-26T17:40:38.864Z,54.80
2019-03-26T17:43:08.176Z,54.80
2019-03-26T17:45:38.545Z,55.10
2019-03-26T17:48:07.872Z,55.70
2019-03-26T17:50:37.178Z,56.00
2019-03-26T17:53:06.502Z,56.50
2019-03-26T17:55:35.867Z,56.90
2019-03-26T17:58:05.188Z,57.50
2019-03-26T18:00:40.621Z,57.70
2019-03-26T18:03:10.200Z,58.30
2019-03-26T18:05:39.609Z,58.20
2019-03-26T18:08:08.949Z,58.80
2019-03-26T18:10:38.450Z,58.90
2019-03-26T18:13:07.782Z,58.60
2019-03-26T18:15:37.105Z,59.00
2019-03-26T18:18:06.572Z,59.40
2019-03-26T18:20:35.989Z,60.10
2019-03-26T18:23:05.428Z,60.00
2019-03-26T18:25:54.146Z,59.90
2019-03-26T18:28:23.444Z,60.00
2019-03-26T18:30:52.781Z,60.10
2019-03-26T18:33:22.080Z,60.30
2019-03-26T18:35:51.416Z,61.30
2019-03-26T18:38:20.719Z,60.90
2019-03-26T18:40:50.045Z,62.30
2019-03-26T18:43:19.353Z,63.40
2019-03-26T18:45:48.693Z,64.30
2019-03-26T18:48:18.007Z,64.20
2019-03-26T18:50:47.347Z,64.70
2019-03-26T18:53:16.681Z,65.00
2019-03-26T18:55:46.113Z,64.60
2019-03-26T18:58:15.584Z,65.70
2019-03-26T19:00:44.922Z,66.70
2019-03-26T19:03:14.266Z,67.00
2019-03-26T19:05:43.587Z,67.90
2019-03-26T19:08:12.938Z,68.70
2019-03-26T19:10:42.274Z,67.40
2019-03-26T19:13:19.062Z,68.10
2019-03-26T19:15:42.601Z,67.60
2019-03-26T19:18:12.149Z,68.40
2019-03-26T19:20:41.472Z,69.40
2019-03-26T19:23:10.799Z,68.40
2019-03-26T19:25:40.104Z,68.30
2019-03-26T19:28:09.440Z,68.90
2019-03-26T19:30:38.860Z,69.30
2019-03-26T19:35:49.584Z,69.80
2019-03-26T19:38:18.928Z,69.70
2019-03-26T19:40:48.374Z,69.70
2019-03-26T19:43:17.739Z,69.80
2019-03-26T19:45:47.115Z,69.80
2019-03-26T19:48:16.452Z,69.40
2019-03-26T19:50:45.839Z,69.70
2019-03-26T19:53:15.172Z,69.90
2019-03-26T19:55:47.730Z,69.50
2019-03-26T19:58:17.072Z,69.00
2019-03-26T20:00:46.372Z,69.90
2019-03-26T20:03:15.752Z,70.10
2019-03-26T20:05:45.048Z,70.60
2019-03-26T20:08:14.447Z,69.80
2019-03-26T20:10:43.867Z,69.30
2019-03-26T20:13:23.700Z,69.30
2019-03-26T20:15:45.176Z,68.70
2019-03-26T20:18:14.499Z,68.90
2019-03-26T20:20:43.809Z,68.60
2019-03-26T20:23:13.243Z,69.70
2019-03-26T20:25:42.560Z,69.80
2019-03-26T20:28:11.884Z,69.00
2019-03-26T20:30:41.242Z,69.50
2019-03-26T20:33:10.578Z,69.30
2019-03-26T20:35:40.973Z,69.10
2019-03-26T20:38:10.344Z,69.50
2019-03-26T20:40:39.834Z,69.20
2019-03-26T20:43:10.347Z,70.00
2019-03-26T20:45:39.660Z,70.30
2019-03-26T20:48:08.976Z,70.10
2019-03-26T20:50:38.296Z,69.90
2019-03-26T20:53:07.701Z,70.50
2019-03-26T20:55:37.372Z,71.80
2019-03-26T20:58:06.850Z,71.00
2019-03-26T21:00:40.980Z,70.00
2019-03-26T21:03:11.382Z,70.70
2019-03-26T21:05:40.848Z,70.60
2019-03-26T21:08:10.183Z,70.80
2019-03-26T21:10:39.545Z,71.00
2019-03-26T21:13:08.867Z,71.00
2019-03-26T21:15:42.368Z,71.80
2019-03-26T21:18:10.345Z,71.40
2019-03-26T21:20:40.740Z,71.00
2019-03-26T21:23:22.644Z,70.80
2019-03-26T21:25:51.955Z,71.30
2019-03-26T21:28:21.344Z,71.50
2019-03-26T21:30:50.652Z,70.10
2019-03-26T21:33:20.081Z,69.90
2019-03-26T21:35:49.455Z,69.70
2019-03-26T21:38:18.783Z,70.20
2019-03-26T21:40:48.085Z,71.00
2019-03-26T21:43:17.437Z,70.20
2019-03-26T21:45:46.744Z,70.00
2019-03-26T21:48:16.072Z,70.10
2019-03-26T21:50:45.370Z,70.40
2019-03-26T21:53:14.698Z,70.30
2019-03-26T21:55:44.026Z,70.30
2019-03-26T21:58:13.353Z,70.00
2019-03-26T22:00:44.334Z,70.20
2019-03-26T22:03:13.875Z,71.30
2019-03-26T22:05:43.200Z,71.40
2019-03-26T22:08:12.544Z,71.00
2019-03-26T22:10:41.863Z,71.00
2019-03-26T22:13:11.167Z,70.40
2019-03-26T22:15:40.497Z,70.10
2019-03-26T22:18:09.801Z,70.70
2019-03-26T22:20:39.136Z,71.40
2019-03-26T22:23:09.614Z,72.00
2019-03-26T22:25:39.127Z,72.40
2019-03-26T22:28:08.456Z,73.00
2019-03-26T22:30:38.752Z,72.70
2019-03-26T22:33:08.088Z,72.50
2019-03-26T22:35:37.424Z,72.30
2019-03-26T22:38:06.763Z,72.50
2019-03-26T22:40:36.061Z,71.70
2019-03-26T22:43:06.357Z,72.10
2019-03-26T22:45:35.733Z,71.90
2019-03-26T22:48:05.065Z,72.60
2019-03-26T22:50:34.360Z,72.70
2019-03-26T22:53:03.696Z,73.10
2019-03-26T22:55:34.092Z,73.60
2019-03-26T22:58:03.420Z,73.70
2019-03-26T23:00:34.829Z,73.60
2019-03-26T23:03:05.902Z,73.20
2019-03-26T23:05:35.363Z,72.80
2019-03-26T23:08:06.078Z,73.30
2019-03-26T23:10:35.704Z,73.60
2019-03-26T23:13:05.275Z,75.00
2019-03-26T23:15:34.743Z,73.80
2019-03-26T23:18:05.509Z,74.40
2019-03-26T23:20:34.843Z,74.70
2019-03-26T23:23:04.260Z,74.40
2019-03-26T23:25:33.637Z,73.80
2019-03-26T23:28:02.969Z,74.00
2019-03-26T23:30:32.407Z,74.40
2019-03-26T23:33:01.809Z,74.30
2019-03-26T23:35:31.214Z,74.50
2019-03-26T23:38:00.540Z,74.20
2019-03-26T23:40:29.866Z,74.30
2019-03-26T23:42:59.257Z,74.20
2019-03-26T23:45:28.588Z,74.60
2019-03-26T23:47:57.886Z,74.90
2019-03-26T23:50:27.218Z,74.80
2019-03-26T23:52:56.547Z,74.30
2019-03-26T23:55:25.874Z,74.40
2019-03-26T23:57:55.202Z,75.20
